sensor_id;sensor_type;location;lat;lon;timestamp;temperature;humidity
66312;HTU21D;53114;51.138;6.008;2023-04-06T00:02:16;2.57;118.99
66312;HTU21D;53114;51.138;6.008;2023-04-06T00:04:42;2.55;118.99
66312;HTU21D;53114;51.138;6.008;2023-04-06T00:07:08;2.52;118.99
66312;HTU21D;53114;51.138;6.008;2023-04-06T00:09:34;2.46;118.99
66312;HTU21D;53114;51.138;6.008;2023-04-06T00:12:00;2.41;118.99
66312;HTU21D;53114;51.138;6.008;2023-04-06T00:14:26;2.40;118.99
66312;HTU21D;53114;51.138;6.008;2023-04-06T00:16:52;2.36;118.99
66312;HTU21D;53114;51.138;6.008;2023-04-06T00:19:18;2.36;118.99
66312;HTU21D;53114;51.138;6.008;2023-04-06T00:21:44;2.35;118.99
66312;HTU21D;53114;51.138;6.008;2023-04-06T00:24:10;2.29;118.99
66312;HTU21D;53114;51.138;6.008;2023-04-06T00:26:36;2.26;118.99
66312;HTU21D;53114;51.138;6.008;2023-04-06T00:29:02;2.27;118.99
66312;HTU21D;53114;51.138;6.008;2023-04-06T00:31:28;2.29;118.99
66312;HTU21D;53114;51.138;6.008;2023-04-06T00:33:54;2.27;118.99
66312;HTU21D;53114;51.138;6.008;2023-04-06T00:36:20;2.23;118.99
66312;HTU21D;53114;51.138;6.008;2023-04-06T00:38:46;2.22;118.99
66312;HTU21D;53114;51.138;6.008;2023-04-06T00:41:12;2.28;118.99
66312;HTU21D;53114;51.138;6.008;2023-04-06T00:43:39;2.36;118.99
66312;HTU21D;53114;51.138;6.008;2023-04-06T00:46:05;2.39;118.99
66312;HTU21D;53114;51.138;6.008;2023-04-06T00:48:31;2.32;118.99
66312;HTU21D;53114;51.138;6.008;2023-04-06T00:51:00;2.26;118.99
66312;HTU21D;53114;51.138;6.008;2023-04-06T00:53:26;2.26;118.99
66312;HTU21D;53114;51.138;6.008;2023-04-06T00:55:52;2.21;118.99
66312;HTU21D;53114;51.138;6.008;2023-04-06T00:58:20;2.16;118.99
66312;HTU21D;53114;51.138;6.008;2023-04-06T01:00:51;2.09;118.99
66312;HTU21D;53114;51.138;6.008;2023-04-06T01:03:19;2.09;118.99
66312;HTU21D;53114;51.138;6.008;2023-04-06T01:05:46;2.11;118.99
66312;HTU21D;53114;51.138;6.008;2023-04-06T01:08:25;2.15;118.99
66312;HTU21D;53114;51.138;6.008;2023-04-06T01:10:59;2.19;118.99
66312;HTU21D;53114;51.138;6.008;2023-04-06T01:13:28;2.12;118.99
66312;HTU21D;53114;51.138;6.008;2023-04-06T01:16:00;2.03;118.99
66312;HTU21D;53114;51.138;6.008;2023-04-06T01:18:33;2.01;118.99
66312;HTU21D;53114;51.138;6.008;2023-04-06T01:21:13;1.96;118.99
66312;HTU21D;53114;51.138;6.008;2023-04-06T01:23:49;1.91;118.99
66312;HTU21D;53114;51.138;6.008;2023-04-06T01:26:22;1.94;118.99
66312;HTU21D;53114;51.138;6.008;2023-04-06T01:28:49;1.92;118.99
66312;HTU21D;53114;51.138;6.008;2023-04-06T01:31:29;1.88;118.99
66312;HTU21D;53114;51.138;6.008;2023-04-06T01:33:55;1.90;118.99
66312;HTU21D;53114;51.138;6.008;2023-04-06T01:36:24;1.93;118.99
66312;HTU21D;53114;51.138;6.008;2023-04-06T01:39:03;1.99;118.99
66312;HTU21D;53114;51.138;6.008;2023-04-06T01:41:34;1.99;118.99
66312;HTU21D;53114;51.138;6.008;2023-04-06T01:44:00;1.98;118.99
66312;HTU21D;53114;51.138;6.008;2023-04-06T01:46:28;1.91;118.99
66312;HTU21D;53114;51.138;6.008;2023-04-06T01:48:55;1.85;118.99
66312;HTU21D;53114;51.138;6.008;2023-04-06T01:51:30;1.82;118.99
66312;HTU21D;53114;51.138;6.008;2023-04-06T01:54:02;1.82;118.99
66312;HTU21D;53114;51.138;6.008;2023-04-06T01:56:40;1.77;118.99
66312;HTU21D;53114;51.138;6.008;2023-04-06T01:59:24;1.68;118.99
66312;HTU21D;53114;51.138;6.008;2023-04-06T02:01:50;1.66;118.99
66312;HTU21D;53114;51.138;6.008;2023-04-06T02:04:17;1.70;118.99
66312;HTU21D;53114;51.138;6.008;2023-04-06T02:06:45;1.70;118.99
66312;HTU21D;53114;51.138;6.008;2023-04-06T02:09:14;1.71;118.99
66312;HTU21D;53114;51.138;6.008;2023-04-06T02:11:40;1.67;118.99
66312;HTU21D;53114;51.138;6.008;2023-04-06T02:14:06;1.65;118.99
66312;HTU21D;53114;51.138;6.008;2023-04-06T02:16:37;1.60;118.99
66312;HTU21D;53114;51.138;6.008;2023-04-06T02:19:03;1.55;118.99
66312;HTU21D;53114;51.138;6.008;2023-04-06T02:21:29;1.55;118.99
66312;HTU21D;53114;51.138;6.008;2023-04-06T02:23:55;1.55;118.99
66312;HTU21D;53114;51.138;6.008;2023-04-06T02:26:21;1.56;118.99
66312;HTU21D;53114;51.138;6.008;2023-04-06T02:28:47;1.56;118.99
66312;HTU21D;53114;51.138;6.008;2023-04-06T02:31:14;1.62;118.99
66312;HTU21D;53114;51.138;6.008;2023-04-06T02:33:41;1.62;118.99
66312;HTU21D;53114;51.138;6.008;2023-04-06T02:36:09;1.66;118.99
66312;HTU21D;53114;51.138;6.008;2023-04-06T02:38:35;1.62;118.99
66312;HTU21D;53114;51.138;6.008;2023-04-06T02:41:02;1.56;118.99
66312;HTU21D;53114;51.138;6.008;2023-04-06T02:43:29;1.57;118.99
66312;HTU21D;53114;51.138;6.008;2023-04-06T02:46:03;1.53;118.99
66312;HTU21D;53114;51.138;6.008;2023-04-06T02:48:33;1.47;118.99
66312;HTU21D;53114;51.138;6.008;2023-04-06T02:51:01;1.46;118.99
66312;HTU21D;53114;51.138;6.008;2023-04-06T02:53:27;1.45;118.99
66312;HTU21D;53114;51.138;6.008;2023-04-06T02:55:53;1.43;118.99
66312;HTU21D;53114;51.138;6.008;2023-04-06T02:58:20;1.45;118.99
66312;HTU21D;53114;51.138;6.008;2023-04-06T03:00:51;1.43;118.99
66312;HTU21D;53114;51.138;6.008;2023-04-06T03:03:17;1.45;118.99
66312;HTU21D;53114;51.138;6.008;2023-04-06T03:05:44;1.45;118.99
66312;HTU21D;53114;51.138;6.008;2023-04-06T03:08:10;1.48;118.99
66312;HTU21D;53114;51.138;6.008;2023-04-06T03:10:42;1.51;118.99
66312;HTU21D;53114;51.138;6.008;2023-04-06T03:13:08;1.52;118.99
66312;HTU21D;53114;51.138;6.008;2023-04-06T03:15:47;1.55;118.99
66312;HTU21D;53114;51.138;6.008;2023-04-06T03:18:20;1.56;118.99
66312;HTU21D;53114;51.138;6.008;2023-04-06T03:20:47;1.61;118.99
66312;HTU21D;53114;51.138;6.008;2023-04-06T03:23:15;1.70;118.99
66312;HTU21D;53114;51.138;6.008;2023-04-06T03:25:43;1.76;118.99
66312;HTU21D;53114;51.138;6.008;2023-04-06T03:28:14;1.79;118.99
66312;HTU21D;53114;51.138;6.008;2023-04-06T03:30:55;1.81;118.99
66312;HTU21D;53114;51.138;6.008;2023-04-06T03:33:42;1.84;118.99
66312;HTU21D;53114;51.138;6.008;2023-04-06T03:36:13;1.95;118.99
66312;HTU21D;53114;51.138;6.008;2023-04-06T03:38:42;2.03;118.99
66312;HTU21D;53114;51.138;6.008;2023-04-06T03:41:11;2.10;118.99
66312;HTU21D;53114;51.138;6.008;2023-04-06T03:43:39;2.14;118.99
66312;HTU21D;53114;51.138;6.008;2023-04-06T03:46:05;2.19;118.99
66312;HTU21D;53114;51.138;6.008;2023-04-06T03:48:31;2.26;118.99
66312;HTU21D;53114;51.138;6.008;2023-04-06T03:51:01;2.35;118.99
66312;HTU21D;53114;51.138;6.008;2023-04-06T03:53:27;2.43;118.99
66312;HTU21D;53114;51.138;6.008;2023-04-06T03:55:54;2.53;118.99
66312;HTU21D;53114;51.138;6.008;2023-04-06T03:58:20;2.60;118.99
66312;HTU21D;53114;51.138;6.008;2023-04-06T04:00:46;2.64;118.99
66312;HTU21D;53114;51.138;6.008;2023-04-06T04:03:12;2.71;118.99
66312;HTU21D;53114;51.138;6.008;2023-04-06T04:05:38;2.82;118.99
66312;HTU21D;53114;51.138;6.008;2023-04-06T04:08:04;2.88;118.99
66312;HTU21D;53114;51.138;6.008;2023-04-06T04:10:30;2.90;118.99
66312;HTU21D;53114;51.138;6.008;2023-04-06T04:12:56;2.94;118.99
66312;HTU21D;53114;51.138;6.008;2023-04-06T04:15:22;3.00;118.99
66312;HTU21D;53114;51.138;6.008;2023-04-06T04:17:48;3.02;118.99
66312;HTU21D;53114;51.138;6.008;2023-04-06T04:20:16;3.08;118.99
66312;HTU21D;53114;51.138;6.008;2023-04-06T04:22:42;3.11;118.99
66312;HTU21D;53114;51.138;6.008;2023-04-06T04:25:10;3.11;118.99
66312;HTU21D;53114;51.138;6.008;2023-04-06T04:27:41;3.17;118.99
66312;HTU21D;53114;51.138;6.008;2023-04-06T04:30:07;3.15;118.99
66312;HTU21D;53114;51.138;6.008;2023-04-06T04:32:34;3.12;118.99
66312;HTU21D;53114;51.138;6.008;2023-04-06T04:35:02;3.04;118.99
66312;HTU21D;53114;51.138;6.008;2023-04-06T04:37:35;2.99;118.99
66312;HTU21D;53114;51.138;6.008;2023-04-06T04:40:03;2.99;118.99
66312;HTU21D;53114;51.138;6.008;2023-04-06T04:42:34;3.02;118.99
66312;HTU21D;53114;51.138;6.008;2023-04-06T04:45:01;3.01;118.99
66312;HTU21D;53114;51.138;6.008;2023-04-06T04:47:38;3.00;118.99
66312;HTU21D;53114;51.138;6.008;2023-04-06T04:50:06;2.98;118.99
66312;HTU21D;53114;51.138;6.008;2023-04-06T04:52:34;2.97;118.99
66312;HTU21D;53114;51.138;6.008;2023-04-06T04:55:11;2.97;118.99
66312;HTU21D;53114;51.138;6.008;2023-04-06T04:57:37;3.00;118.99
66312;HTU21D;53114;51.138;6.008;2023-04-06T05:00:05;3.00;118.99
66312;HTU21D;53114;51.138;6.008;2023-04-06T05:02:33;3.03;118.99
66312;HTU21D;53114;51.138;6.008;2023-04-06T05:05:13;3.01;118.99
66312;HTU21D;53114;51.138;6.008;2023-04-06T05:07:40;2.99;118.99
66312;HTU21D;53114;51.138;6.008;2023-04-06T05:10:10;3.05;118.99
66312;HTU21D;53114;51.138;6.008;2023-04-06T05:12:45;3.10;118.99
66312;HTU21D;53114;51.138;6.008;2023-04-06T05:15:11;3.10;118.99
66312;HTU21D;53114;51.138;6.008;2023-04-06T05:17:38;3.13;118.99
66312;HTU21D;53114;51.138;6.008;2023-04-06T05:20:06;3.23;118.99
66312;HTU21D;53114;51.138;6.008;2023-04-06T05:22:38;3.35;118.99
66312;HTU21D;53114;51.138;6.008;2023-04-06T05:25:08;3.43;118.99
66312;HTU21D;53114;51.138;6.008;2023-04-06T05:27:34;3.53;118.99
66312;HTU21D;53114;51.138;6.008;2023-04-06T05:30:06;3.60;118.99
66312;HTU21D;53114;51.138;6.008;2023-04-06T05:32:38;3.69;118.99
66312;HTU21D;53114;51.138;6.008;2023-04-06T05:35:05;3.73;118.99
66312;HTU21D;53114;51.138;6.008;2023-04-06T05:37:33;3.79;118.99
66312;HTU21D;53114;51.138;6.008;2023-04-06T05:39:59;3.83;118.99
66312;HTU21D;53114;51.138;6.008;2023-04-06T05:42:26;3.88;118.99
66312;HTU21D;53114;51.138;6.008;2023-04-06T05:44:56;3.94;118.99
66312;HTU21D;53114;51.138;6.008;2023-04-06T05:47:22;3.99;118.99
66312;HTU21D;53114;51.138;6.008;2023-04-06T05:49:54;4.05;118.99
66312;HTU21D;53114;51.138;6.008;2023-04-06T05:52:33;4.15;118.99
66312;HTU21D;53114;51.138;6.008;2023-04-06T05:54:59;4.29;118.99
66312;HTU21D;53114;51.138;6.008;2023-04-06T05:57:26;4.39;118.99
66312;HTU21D;53114;51.138;6.008;2023-04-06T05:59:53;4.50;118.99
66312;HTU21D;53114;51.138;6.008;2023-04-06T06:02:21;4.58;118.99
66312;HTU21D;53114;51.138;6.008;2023-04-06T06:04:50;4.67;118.99
66312;HTU21D;53114;51.138;6.008;2023-04-06T06:07:17;4.77;118.99
66312;HTU21D;53114;51.138;6.008;2023-04-06T06:10:51;4.92;118.99
66312;HTU21D;53114;51.138;6.008;2023-04-06T06:13:21;5.02;118.99
66312;HTU21D;53114;51.138;6.008;2023-04-06T06:15:49;5.10;118.99
66312;HTU21D;53114;51.138;6.008;2023-04-06T06:18:17;5.21;118.99
66312;HTU21D;53114;51.138;6.008;2023-04-06T06:20:43;5.31;118.99
66312;HTU21D;53114;51.138;6.008;2023-04-06T06:23:09;5.39;118.99
66312;HTU21D;53114;51.138;6.008;2023-04-06T06:25:36;5.48;118.99
66312;HTU21D;53114;51.138;6.008;2023-04-06T06:28:02;5.59;118.99
66312;HTU21D;53114;51.138;6.008;2023-04-06T06:30:30;5.68;118.99
66312;HTU21D;53114;51.138;6.008;2023-04-06T06:32:56;5.75;118.99
66312;HTU21D;53114;51.138;6.008;2023-04-06T06:35:23;5.83;118.99
66312;HTU21D;53114;51.138;6.008;2023-04-06T06:37:49;5.95;118.99
66312;HTU21D;53114;51.138;6.008;2023-04-06T06:40:18;6.01;118.99
66312;HTU21D;53114;51.138;6.008;2023-04-06T06:42:47;6.13;118.99
66312;HTU21D;53114;51.138;6.008;2023-04-06T06:45:24;6.29;118.99
66312;HTU21D;53114;51.138;6.008;2023-04-06T06:47:51;6.39;118.99
66312;HTU21D;53114;51.138;6.008;2023-04-06T06:50:17;6.50;118.99
66312;HTU21D;53114;51.138;6.008;2023-04-06T06:52:44;6.58;118.99
66312;HTU21D;53114;51.138;6.008;2023-04-06T06:55:10;6.68;118.99
66312;HTU21D;53114;51.138;6.008;2023-04-06T06:57:38;6.78;118.99
66312;HTU21D;53114;51.138;6.008;2023-04-06T07:00:06;6.87;118.99
66312;HTU21D;53114;51.138;6.008;2023-04-06T07:02:34;6.98;118.99
66312;HTU21D;53114;51.138;6.008;2023-04-06T07:05:02;7.05;118.99
66312;HTU21D;53114;51.138;6.008;2023-04-06T07:07:31;7.18;117.99
66312;HTU21D;53114;51.138;6.008;2023-04-06T07:10:00;7.35;118.29
66312;HTU21D;53114;51.138;6.008;2023-04-06T07:12:27;7.49;117.02
66312;HTU21D;53114;51.138;6.008;2023-04-06T07:14:53;7.61;116.41
66312;HTU21D;53114;51.138;6.008;2023-04-06T07:17:19;7.71;115.30
66312;HTU21D;53114;51.138;6.008;2023-04-06T07:19:45;7.82;114.70
66312;HTU21D;53114;51.138;6.008;2023-04-06T07:22:11;7.86;113.18
66312;HTU21D;53114;51.138;6.008;2023-04-06T07:24:38;7.93;113.53
66312;HTU21D;53114;51.138;6.008;2023-04-06T07:27:03;8.01;111.74
66312;HTU21D;53114;51.138;6.008;2023-04-06T07:29:30;8.02;110.95
66312;HTU21D;53114;51.138;6.008;2023-04-06T07:31:56;8.07;111.00
66312;HTU21D;53114;51.138;6.008;2023-04-06T07:34:22;8.15;111.20
66312;HTU21D;53114;51.138;6.008;2023-04-06T07:36:49;8.20;112.34
66312;HTU21D;53114;51.138;6.008;2023-04-06T07:39:15;8.28;112.59
66312;HTU21D;53114;51.138;6.008;2023-04-06T07:41:41;8.31;111.82
66312;HTU21D;53114;51.138;6.008;2023-04-06T07:44:07;8.33;110.53
66312;HTU21D;53114;51.138;6.008;2023-04-06T07:46:33;8.37;110.71
66312;HTU21D;53114;51.138;6.008;2023-04-06T07:49:03;8.47;110.33
66312;HTU21D;53114;51.138;6.008;2023-04-06T07:51:31;8.55;109.35
66312;HTU21D;53114;51.138;6.008;2023-04-06T07:53:57;8.63;109.50
66312;HTU21D;53114;51.138;6.008;2023-04-06T07:56:24;8.74;109.43
66312;HTU21D;53114;51.138;6.008;2023-04-06T07:58:50;8.82;109.66
66312;HTU21D;53114;51.138;6.008;2023-04-06T08:01:16;8.88;109.46
66312;HTU21D;53114;51.138;6.008;2023-04-06T08:03:42;8.96;107.96
66312;HTU21D;53114;51.138;6.008;2023-04-06T08:06:08;9.01;108.20
66312;HTU21D;53114;51.138;6.008;2023-04-06T08:08:34;9.09;108.02
66312;HTU21D;53114;51.138;6.008;2023-04-06T08:11:01;9.11;106.32
66312;HTU21D;53114;51.138;6.008;2023-04-06T08:13:28;9.19;105.73
66312;HTU21D;53114;51.138;6.008;2023-04-06T08:15:54;9.26;106.46
66312;HTU21D;53114;51.138;6.008;2023-04-06T08:18:20;9.36;105.56
66312;HTU21D;53114;51.138;6.008;2023-04-06T08:20:46;9.40;105.23
66312;HTU21D;53114;51.138;6.008;2023-04-06T08:23:12;9.47;104.41
66312;HTU21D;53114;51.138;6.008;2023-04-06T08:25:38;9.59;104.98
66312;HTU21D;53114;51.138;6.008;2023-04-06T08:28:04;9.77;104.13
66312;HTU21D;53114;51.138;6.008;2023-04-06T08:30:31;9.92;103.87
66312;HTU21D;53114;51.138;6.008;2023-04-06T08:32:57;10.09;103.57
66312;HTU21D;53114;51.138;6.008;2023-04-06T08:35:23;10.20;102.88
66312;HTU21D;53114;51.138;6.008;2023-04-06T08:37:49;10.33;104.02
66312;HTU21D;53114;51.138;6.008;2023-04-06T08:40:15;10.44;102.19
66312;HTU21D;53114;51.138;6.008;2023-04-06T08:42:46;10.63;101.77
66312;HTU21D;53114;51.138;6.008;2023-04-06T08:45:16;10.86;101.81
66312;HTU21D;53114;51.138;6.008;2023-04-06T08:47:42;11.17;101.89
66312;HTU21D;53114;51.138;6.008;2023-04-06T08:50:09;11.39;99.05
66312;HTU21D;53114;51.138;6.008;2023-04-06T08:52:38;11.54;95.43
66312;HTU21D;53114;51.138;6.008;2023-04-06T08:55:05;11.78;94.54
66312;HTU21D;53114;51.138;6.008;2023-04-06T08:57:31;12.01;91.18
66312;HTU21D;53114;51.138;6.008;2023-04-06T09:00:00;12.31;91.70
66312;HTU21D;53114;51.138;6.008;2023-04-06T09:02:27;12.57;89.61
66312;HTU21D;53114;51.138;6.008;2023-04-06T09:04:54;12.72;87.77
66312;HTU21D;53114;51.138;6.008;2023-04-06T09:07:21;12.91;86.40
66312;HTU21D;53114;51.138;6.008;2023-04-06T09:09:47;13.01;84.48
66312;HTU21D;53114;51.138;6.008;2023-04-06T09:12:31;12.96;83.62
66312;HTU21D;53114;51.138;6.008;2023-04-06T09:14:59;13.04;85.96
66312;HTU21D;53114;51.138;6.008;2023-04-06T09:17:26;13.05;85.52
66312;HTU21D;53114;51.138;6.008;2023-04-06T09:19:53;13.01;82.92
66312;HTU21D;53114;51.138;6.008;2023-04-06T09:22:20;13.10;84.50
66312;HTU21D;53114;51.138;6.008;2023-04-06T09:24:51;13.22;78.40
66312;HTU21D;53114;51.138;6.008;2023-04-06T09:27:30;13.30;81.17
66312;HTU21D;53114;51.138;6.008;2023-04-06T09:32:30;13.22;77.09
66312;HTU21D;53114;51.138;6.008;2023-04-06T09:35:07;13.15;77.96
66312;HTU21D;53114;51.138;6.008;2023-04-06T09:37:33;13.05;72.64
66312;HTU21D;53114;51.138;6.008;2023-04-06T09:40:04;12.62;64.51
66312;HTU21D;53114;51.138;6.008;2023-04-06T09:42:31;12.38;75.90
66312;HTU21D;53114;51.138;6.008;2023-04-06T09:44:57;12.33;75.63
66312;HTU21D;53114;51.138;6.008;2023-04-06T09:47:24;12.34;74.91
66312;HTU21D;53114;51.138;6.008;2023-04-06T09:49:57;12.26;75.68
66312;HTU21D;53114;51.138;6.008;2023-04-06T09:52:41;12.22;76.82
66312;HTU21D;53114;51.138;6.008;2023-04-06T09:55:08;12.23;75.83
66312;HTU21D;53114;51.138;6.008;2023-04-06T10:00:11;12.37;75.05
66312;HTU21D;53114;51.138;6.008;2023-04-06T10:06:04;12.80;72.51
66312;HTU21D;53114;51.138;6.008;2023-04-06T10:08:34;12.99;72.66
66312;HTU21D;53114;51.138;6.008;2023-04-06T10:11:02;13.25;67.37
66312;HTU21D;53114;51.138;6.008;2023-04-06T10:13:28;13.58;66.88
66312;HTU21D;53114;51.138;6.008;2023-04-06T10:15:54;13.85;66.16
66312;HTU21D;53114;51.138;6.008;2023-04-06T10:18:21;14.17;59.29
66312;HTU21D;53114;51.138;6.008;2023-04-06T10:21:00;14.15;58.80
66312;HTU21D;53114;51.138;6.008;2023-04-06T10:23:29;14.22;53.91
66312;HTU21D;53114;51.138;6.008;2023-04-06T10:26:01;14.30;61.18
66312;HTU21D;53114;51.138;6.008;2023-04-06T10:28:35;14.45;58.97
66312;HTU21D;53114;51.138;6.008;2023-04-06T10:31:04;14.49;59.54
66312;HTU21D;53114;51.138;6.008;2023-04-06T10:33:31;14.59;57.37
66312;HTU21D;53114;51.138;6.008;2023-04-06T10:36:08;14.85;58.05
66312;HTU21D;53114;51.138;6.008;2023-04-06T10:38:37;14.89;55.47
66312;HTU21D;53114;51.138;6.008;2023-04-06T10:41:05;14.79;57.00
66312;HTU21D;53114;51.138;6.008;2023-04-06T10:43:36;14.67;57.10
66312;HTU21D;53114;51.138;6.008;2023-04-06T10:46:04;14.45;57.79
66312;HTU21D;53114;51.138;6.008;2023-04-06T10:48:42;14.23;59.57
66312;HTU21D;53114;51.138;6.008;2023-04-06T10:51:13;14.08;59.57
66312;HTU21D;53114;51.138;6.008;2023-04-06T10:53:45;13.64;60.46
66312;HTU21D;53114;51.138;6.008;2023-04-06T10:56:17;13.38;66.70
66312;HTU21D;53114;51.138;6.008;2023-04-06T10:58:48;13.16;68.37
66312;HTU21D;53114;51.138;6.008;2023-04-06T11:01:16;13.25;68.65
66312;HTU21D;53114;51.138;6.008;2023-04-06T11:03:51;13.21;68.62
66312;HTU21D;53114;51.138;6.008;2023-04-06T11:06:22;12.75;69.52
66312;HTU21D;53114;51.138;6.008;2023-04-06T11:08:50;12.74;71.99
66312;HTU21D;53114;51.138;6.008;2023-04-06T11:11:22;12.69;74.86
66312;HTU21D;53114;51.138;6.008;2023-04-06T11:13:51;12.58;73.38
66312;HTU21D;53114;51.138;6.008;2023-04-06T11:16:26;12.56;74.32
66312;HTU21D;53114;51.138;6.008;2023-04-06T11:18:57;12.51;76.82
66312;HTU21D;53114;51.138;6.008;2023-04-06T11:21:41;12.57;79.31
66312;HTU21D;53114;51.138;6.008;2023-04-06T11:24:16;12.55;78.31
66312;HTU21D;53114;51.138;6.008;2023-04-06T11:26:46;12.45;80.86
66312;HTU21D;53114;51.138;6.008;2023-04-06T11:29:18;12.42;84.74
66312;HTU21D;53114;51.138;6.008;2023-04-06T11:31:47;12.44;85.67
66312;HTU21D;53114;51.138;6.008;2023-04-06T11:34:17;12.15;99.06
66312;HTU21D;53114;51.138;6.008;2023-04-06T11:36:45;11.78;99.32
66312;HTU21D;53114;51.138;6.008;2023-04-06T11:39:13;11.43;105.41
66312;HTU21D;53114;51.138;6.008;2023-04-06T11:41:39;11.29;107.86
66312;HTU21D;53114;51.138;6.008;2023-04-06T11:44:06;11.25;108.38
66312;HTU21D;53114;51.138;6.008;2023-04-06T11:46:32;11.11;115.83
66312;HTU21D;53114;51.138;6.008;2023-04-06T11:49:00;10.94;114.94
66312;HTU21D;53114;51.138;6.008;2023-04-06T11:51:27;10.84;113.16
66312;HTU21D;53114;51.138;6.008;2023-04-06T11:53:54;10.90;113.40
66312;HTU21D;53114;51.138;6.008;2023-04-06T11:56:29;10.92;118.99
66312;HTU21D;53114;51.138;6.008;2023-04-06T11:58:58;10.90;118.99
66312;HTU21D;53114;51.138;6.008;2023-04-06T12:01:28;10.74;118.99
66312;HTU21D;53114;51.138;6.008;2023-04-06T12:03:54;10.55;118.99
66312;HTU21D;53114;51.138;6.008;2023-04-06T12:06:20;10.34;118.99
66312;HTU21D;53114;51.138;6.008;2023-04-06T12:08:46;9.99;118.99
66312;HTU21D;53114;51.138;6.008;2023-04-06T12:11:13;9.92;118.99
66312;HTU21D;53114;51.138;6.008;2023-04-06T12:13:39;9.97;118.99
66312;HTU21D;53114;51.138;6.008;2023-04-06T12:16:05;9.97;118.99
66312;HTU21D;53114;51.138;6.008;2023-04-06T12:18:31;9.90;118.99
66312;HTU21D;53114;51.138;6.008;2023-04-06T12:20:57;9.79;118.99
66312;HTU21D;53114;51.138;6.008;2023-04-06T12:23:23;9.89;118.99
66312;HTU21D;53114;51.138;6.008;2023-04-06T12:25:49;9.88;118.99
66312;HTU21D;53114;51.138;6.008;2023-04-06T12:28:16;9.95;118.99
66312;HTU21D;53114;51.138;6.008;2023-04-06T12:30:42;10.07;118.99
66312;HTU21D;53114;51.138;6.008;2023-04-06T12:33:08;10.06;118.99
66312;HTU21D;53114;51.138;6.008;2023-04-06T12:35:34;9.92;118.99
66312;HTU21D;53114;51.138;6.008;2023-04-06T12:38:01;9.91;118.99
66312;HTU21D;53114;51.138;6.008;2023-04-06T12:40:28;9.83;118.99
66312;HTU21D;53114;51.138;6.008;2023-04-06T12:42:54;9.81;118.99
66312;HTU21D;53114;51.138;6.008;2023-04-06T12:45:20;9.81;118.99
66312;HTU21D;53114;51.138;6.008;2023-04-06T12:47:47;9.89;118.99
66312;HTU21D;53114;51.138;6.008;2023-04-06T12:50:13;9.91;118.99
66312;HTU21D;53114;51.138;6.008;2023-04-06T12:52:39;9.92;118.99
66312;HTU21D;53114;51.138;6.008;2023-04-06T12:55:06;10.09;118.99
66312;HTU21D;53114;51.138;6.008;2023-04-06T12:57:32;10.04;118.99
66312;HTU21D;53114;51.138;6.008;2023-04-06T12:59:58;9.95;118.99
66312;HTU21D;53114;51.138;6.008;2023-04-06T13:02:24;9.95;118.99
66312;HTU21D;53114;51.138;6.008;2023-04-06T13:04:52;9.98;118.99
66312;HTU21D;53114;51.138;6.008;2023-04-06T13:07:19;9.92;118.99
66312;HTU21D;53114;51.138;6.008;2023-04-06T13:09:45;9.86;118.99
66312;HTU21D;53114;51.138;6.008;2023-04-06T13:12:13;9.94;118.99
66312;HTU21D;53114;51.138;6.008;2023-04-06T13:14:39;10.13;118.99
66312;HTU21D;53114;51.138;6.008;2023-04-06T13:17:06;10.25;118.99
66312;HTU21D;53114;51.138;6.008;2023-04-06T13:19:32;10.22;118.99
66312;HTU21D;53114;51.138;6.008;2023-04-06T13:21:58;10.25;118.99
66312;HTU21D;53114;51.138;6.008;2023-04-06T13:24:24;10.27;118.99
66312;HTU21D;53114;51.138;6.008;2023-04-06T13:26:50;10.31;118.99
66312;HTU21D;53114;51.138;6.008;2023-04-06T13:29:16;10.43;118.99
66312;HTU21D;53114;51.138;6.008;2023-04-06T13:31:42;10.49;118.99
66312;HTU21D;53114;51.138;6.008;2023-04-06T13:34:08;10.53;118.99
66312;HTU21D;53114;51.138;6.008;2023-04-06T13:36:35;10.44;118.99
66312;HTU21D;53114;51.138;6.008;2023-04-06T13:39:01;10.38;118.99
66312;HTU21D;53114;51.138;6.008;2023-04-06T13:41:27;10.37;118.99
66312;HTU21D;53114;51.138;6.008;2023-04-06T13:43:53;10.35;118.99
66312;HTU21D;53114;51.138;6.008;2023-04-06T13:46:20;10.38;118.99
66312;HTU21D;53114;51.138;6.008;2023-04-06T13:48:46;10.30;118.99
66312;HTU21D;53114;51.138;6.008;2023-04-06T13:51:14;10.34;118.99
66312;HTU21D;53114;51.138;6.008;2023-04-06T13:53:40;10.29;118.99
66312;HTU21D;53114;51.138;6.008;2023-04-06T13:56:07;10.25;118.99
66312;HTU21D;53114;51.138;6.008;2023-04-06T13:58:33;10.22;118.99
66312;HTU21D;53114;51.138;6.008;2023-04-06T14:01:06;10.24;118.99
66312;HTU21D;53114;51.138;6.008;2023-04-06T14:03:33;10.22;118.99
66312;HTU21D;53114;51.138;6.008;2023-04-06T14:05:59;10.23;118.99
66312;HTU21D;53114;51.138;6.008;2023-04-06T14:08:25;10.12;118.99
66312;HTU21D;53114;51.138;6.008;2023-04-06T14:10:51;10.14;118.99
66312;HTU21D;53114;51.138;6.008;2023-04-06T14:13:17;10.19;118.99
66312;HTU21D;53114;51.138;6.008;2023-04-06T14:15:44;10.28;118.99
66312;HTU21D;53114;51.138;6.008;2023-04-06T14:18:10;10.36;118.99
66312;HTU21D;53114;51.138;6.008;2023-04-06T14:20:37;10.39;118.99
66312;HTU21D;53114;51.138;6.008;2023-04-06T14:23:03;10.39;118.99
66312;HTU21D;53114;51.138;6.008;2023-04-06T14:25:29;10.30;118.99
66312;HTU21D;53114;51.138;6.008;2023-04-06T14:27:57;10.27;118.99
66312;HTU21D;53114;51.138;6.008;2023-04-06T14:30:23;10.21;118.99
66312;HTU21D;53114;51.138;6.008;2023-04-06T14:32:49;10.16;118.99
66312;HTU21D;53114;51.138;6.008;2023-04-06T14:35:15;10.15;118.99
66312;HTU21D;53114;51.138;6.008;2023-04-06T14:37:42;10.18;118.99
66312;HTU21D;53114;51.138;6.008;2023-04-06T14:40:08;10.20;118.99
66312;HTU21D;53114;51.138;6.008;2023-04-06T14:42:35;10.19;118.99
66312;HTU21D;53114;51.138;6.008;2023-04-06T14:45:02;10.11;118.99
66312;HTU21D;53114;51.138;6.008;2023-04-06T14:47:29;10.09;118.99
66312;HTU21D;53114;51.138;6.008;2023-04-06T14:49:55;10.05;118.99
66312;HTU21D;53114;51.138;6.008;2023-04-06T14:52:21;10.04;118.99
66312;HTU21D;53114;51.138;6.008;2023-04-06T14:54:47;10.06;118.99
66312;HTU21D;53114;51.138;6.008;2023-04-06T14:57:13;10.08;118.99
66312;HTU21D;53114;51.138;6.008;2023-04-06T14:59:39;10.05;118.99
66312;HTU21D;53114;51.138;6.008;2023-04-06T15:02:05;9.99;118.99
66312;HTU21D;53114;51.138;6.008;2023-04-06T15:04:34;9.95;118.99
66312;HTU21D;53114;51.138;6.008;2023-04-06T15:07:00;9.84;118.99
66312;HTU21D;53114;51.138;6.008;2023-04-06T15:09:27;9.78;118.99
66312;HTU21D;53114;51.138;6.008;2023-04-06T15:11:52;9.77;118.99
66312;HTU21D;53114;51.138;6.008;2023-04-06T15:14:19;9.75;118.99
66312;HTU21D;53114;51.138;6.008;2023-04-06T15:16:45;9.69;118.99
66312;HTU21D;53114;51.138;6.008;2023-04-06T15:19:11;9.68;118.99
66312;HTU21D;53114;51.138;6.008;2023-04-06T15:21:37;9.52;118.99
66312;HTU21D;53114;51.138;6.008;2023-04-06T15:24:03;9.53;118.99
66312;HTU21D;53114;51.138;6.008;2023-04-06T15:26:32;9.57;118.99
66312;HTU21D;53114;51.138;6.008;2023-04-06T15:29:00;9.59;118.99